CheckWX is a tool to help pilots better visualize weather data.  It is not intended as a substitute for an official pre-flight weather briefing.

04:34:13 UTC

WSSS METAR
Singapore Changi International Airport
Singapore, Singapore
Current

34 mins ago

WSSS 020400Z 06008KT 010V090 9999 SCT020 BKN350 33/24 Q1010 NOSIG
Observed
Apr-2 @ 04:00 UTC
Wind
  • 060° at 8 KTS
Visibility
10,000+ meters
Flight Rules
VFR
Cloud Levels
  • Scattered at 2,000' AGL
  • Broken at 35,000' AGL
Temperature
33°C / 91°F
Dewpoint
24°C / 75°F
Humidity
59%
Altimeter
29.82" Hg
Pressure
1009.92 hPa
Previous

1 hour ago

WSSS 020330Z 04006KT 350V090 9999 FEW020 BKN350 32/25 Q1010 NOSIG
Observed
Apr-2 @ 03:30 UTC
Wind
  • 040° at 6 KTS
Visibility
10,000+ meters
Flight Rules
VFR
Cloud Levels
  • Few at 2,000' AGL
  • Broken at 35,000' AGL
Temperature
32°C / 90°F
Dewpoint
25°C / 77°F
Humidity
67%
Altimeter
29.82" Hg
Pressure
1009.92 hPa
Previous

2 hours ago

WSSS 020300Z 05007KT 9999 FEW020 BKN350 32/25 Q1011 NOSIG
Observed
Apr-2 @ 03:00 UTC
Wind
  • 050° at 7 KTS
Visibility
10,000+ meters
Flight Rules
VFR
Cloud Levels
  • Few at 2,000' AGL
  • Broken at 35,000' AGL
Temperature
32°C / 90°F
Dewpoint
25°C / 77°F
Humidity
67%
Altimeter
29.85" Hg
Pressure
1010.92 hPa